Time;durP1;ratioP1;P1;durP2;ratioP2;P2;SDS_P1;SDS_P2;PMS_P1;PMS_P2;Temp;Humidity;BMP_temperature;BMP_pressure;BME280_temperature;BME280_humidity;BME280_pressure;Samples;Min_cycle;Max_cycle;Signal;HPM_P1;HPM_P2
2022/07/10 00:00:31;;;;;;;9.15;1.73;;;15.60;99.90;;;;;;5034112;28;20049;-71
2022/07/10 00:02:57;;;;;;;9.80;2.08;;;15.60;99.90;;;;;;5048167;28;20029;-71
2022/07/10 00:05:24;;;;;;;7.07;1.85;;;15.60;99.90;;;;;;5041990;28;20021;-71
2022/07/10 00:07:50;;;;;;;6.38;1.70;;;15.60;99.90;;;;;;5041328;28;20022;-70
2022/07/10 00:10:17;;;;;;;7.15;1.50;;;15.60;99.90;;;;;;5039269;28;20096;-71
2022/07/10 00:12:43;;;;;;;5.82;1.13;;;15.60;99.90;;;;;;5054013;28;20029;-71
2022/07/10 00:15:10;;;;;;;5.40;1.70;;;15.60;99.90;;;;;;5053748;28;20028;-71
2022/07/10 00:17:36;;;;;;;9.02;1.77;;;15.60;99.90;;;;;;5044739;28;20140;-72
2022/07/10 00:20:02;;;;;;;4.82;1.27;;;15.60;99.90;;;;;;5048180;28;20032;-72
2022/07/10 00:22:28;;;;;;;7.18;2.00;;;15.50;99.90;;;;;;5037394;28;20053;-72
2022/07/10 00:24:54;;;;;;;9.75;2.67;;;15.50;99.90;;;;;;5053531;28;20080;-72
2022/07/10 00:27:20;;;;;;;11.70;3.22;;;15.50;99.90;;;;;;5052172;28;20032;-70
2022/07/10 00:29:46;;;;;;;10.45;3.55;;;15.50;99.90;;;;;;5041381;28;20365;-73
2022/07/10 00:32:11;;;;;;;10.73;3.38;;;15.50;99.90;;;;;;5053736;28;20025;-73
2022/07/10 00:34:38;;;;;;;7.00;2.80;;;15.50;99.90;;;;;;5053434;28;20124;-71
2022/07/10 00:37:04;;;;;;;7.75;2.05;;;15.50;99.90;;;;;;5053832;28;20033;-72
2022/07/10 00:39:30;;;;;;;7.07;1.73;;;15.50;99.90;;;;;;5053309;28;20096;-70
2022/07/10 00:42:09;;;;;;;4.65;1.40;;;15.40;99.90;;;;;;5053669;28;20068;-72
2022/07/10 00:44:35;;;;;;;7.85;1.60;;;15.40;99.90;;;;;;5036165;28;20024;-70
2022/07/10 00:47:01;;;;;;;5.50;1.70;;;15.40;99.90;;;;;;5033441;28;20057;-72
2022/07/10 00:49:27;;;;;;;5.20;1.60;;;15.40;99.90;;;;;;5048904;28;20048;-71
2022/07/10 00:51:53;;;;;;;6.07;1.50;;;15.40;99.90;;;;;;5053212;28;20092;-72
2022/07/10 00:54:20;;;;;;;4.30;1.58;;;15.40;99.90;;;;;;5052967;28;20036;-74
2022/07/10 00:56:45;;;;;;;5.03;1.42;;;15.40;99.90;;;;;;5033741;28;20022;-70
2022/07/10 00:59:11;;;;;;;5.28;1.42;;;15.30;99.90;;;;;;5045027;28;20031;-71
2022/07/10 01:01:37;;;;;;;8.18;2.00;;;15.30;99.90;;;;;;5039330;28;20027;-71
2022/07/10 01:04:02;;;;;;;5.85;1.35;;;15.30;99.90;;;;;;5048901;28;20477;-70
2022/07/10 01:06:28;;;;;;;6.47;1.60;;;15.30;99.90;;;;;;5046334;28;20013;-72
2022/07/10 01:08:54;;;;;;;6.53;1.60;;;15.30;99.90;;;;;;5053014;28;20033;-71
2022/07/10 01:11:21;;;;;;;6.30;1.60;;;15.30;99.90;;;;;;5043430;28;20100;-72
2022/07/10 01:13:46;;;;;;;4.72;1.63;;;15.20;99.90;;;;;;5049308;28;20025;-72
2022/07/10 01:16:13;;;;;;;6.65;1.52;;;15.20;99.90;;;;;;5037905;28;20156;-72
2022/07/10 01:18:39;;;;;;;6.65;1.30;;;15.20;99.90;;;;;;5033586;28;20032;-71
2022/07/10 01:21:05;;;;;;;5.15;1.60;;;15.20;99.90;;;;;;5040394;28;20112;-71
2022/07/10 01:23:31;;;;;;;7.18;1.83;;;15.20;99.90;;;;;;5037775;28;20134;-71
2022/07/10 01:25:56;;;;;;;6.32;1.55;;;15.20;99.90;;;;;;5053142;28;20345;-70
2022/07/10 01:28:22;;;;;;;6.43;1.90;;;15.10;99.90;;;;;;5050156;28;20021;-71
2022/07/10 01:30:48;;;;;;;6.95;1.92;;;15.10;99.90;;;;;;5032474;28;20109;-71
2022/07/10 01:33:14;;;;;;;4.50;1.58;;;15.10;99.90;;;;;;5032939;28;20061;-72
2022/07/10 01:35:40;;;;;;;6.55;1.45;;;15.10;99.90;;;;;;5052459;28;20063;-71
2022/07/10 01:38:06;;;;;;;6.15;1.60;;;15.10;99.90;;;;;;5052610;28;20116;-72
2022/07/10 01:40:32;;;;;;;4.78;1.50;;;15.10;99.90;;;;;;5047973;28;20033;-72
2022/07/10 01:42:58;;;;;;;5.55;1.73;;;15.00;99.90;;;;;;5042911;28;20055;-71
2022/07/10 01:45:24;;;;;;;4.22;1.45;;;15.00;99.90;;;;;;5052667;28;20082;-72
2022/07/10 01:47:50;;;;;;;4.68;1.40;;;15.00;99.90;;;;;;5043417;28;20050;-71
2022/07/10 01:50:16;;;;;;;8.10;1.90;;;15.00;99.90;;;;;;5032791;28;20029;-71
2022/07/10 01:52:41;;;;;;;6.68;1.75;;;15.00;99.90;;;;;;5045681;28;20492;-72
2022/07/10 01:55:07;;;;;;;5.28;1.63;;;15.00;99.90;;;;;;5032210;28;20029;-71
2022/07/10 01:57:33;;;;;;;5.22;1.73;;;15.00;99.90;;;;;;5046508;28;20032;-70
2022/07/10 01:59:59;;;;;;;5.43;1.70;;;15.00;99.90;;;;;;5032350;28;20051;-71
2022/07/10 02:02:24;;;;;;;3.05;1.30;;;14.90;99.90;;;;;;5034604;28;20026;-71
2022/07/10 02:04:50;;;;;;;4.47;1.58;;;14.90;99.90;;;;;;5052249;28;20017;-71
2022/07/10 02:07:18;;;;;;;3.20;1.27;;;14.90;99.90;;;;;;5037988;28;20022;-72
2022/07/10 02:09:44;;;;;;;6.38;1.67;;;14.90;99.90;;;;;;5051901;28;20021;-71
2022/07/10 02:12:12;;;;;;;5.25;1.67;;;14.90;99.90;;;;;;5052262;28;20025;-71
2022/07/10 02:14:39;;;;;;;7.75;1.70;;;14.90;99.90;;;;;;5047294;28;20041;-72
2022/07/10 02:17:05;;;;;;;6.68;1.75;;;14.80;99.90;;;;;;5045657;28;20021;-71
2022/07/10 02:19:31;;;;;;;5.75;1.67;;;14.80;99.90;;;;;;5038529;28;20072;-71
2022/07/10 02:21:57;;;;;;;4.05;1.27;;;14.80;99.90;;;;;;5037954;28;20458;-70
2022/07/10 02:24:23;;;;;;;7.90;1.60;;;14.80;99.90;;;;;;5044040;28;20124;-71
2022/07/10 02:26:49;;;;;;;8.68;1.90;;;14.80;99.90;;;;;;5031845;28;20020;-72
2022/07/10 02:29:15;;;;;;;8.52;1.88;;;14.80;99.90;;;;;;5044829;28;20017;-72
2022/07/10 02:31:41;;;;;;;7.95;1.73;;;14.80;99.90;;;;;;5051869;28;20428;-72
2022/07/10 02:34:14;;;;;;;4.25;1.40;;;14.80;99.90;;;;;;5040958;28;20033;-72
2022/07/10 02:36:40;;;;;;;6.35;1.60;;;14.80;99.90;;;;;;5049717;28;20033;-71
2022/07/10 02:39:07;;;;;;;5.88;1.50;;;14.80;99.90;;;;;;5051501;28;20056;-71
2022/07/10 02:41:32;;;;;;;7.78;1.70;;;14.80;99.90;;;;;;5038063;28;20040;-72
2022/07/10 02:43:58;;;;;;;6.07;1.60;;;14.70;99.90;;;;;;5043679;28;20694;-71
2022/07/10 02:46:25;;;;;;;6.55;1.83;;;14.70;99.90;;;;;;5031964;28;20025;-72
2022/07/10 02:48:51;;;;;;;6.78;1.98;;;14.70;99.90;;;;;;5031699;28;20296;-72
2022/07/10 02:51:16;;;;;;;7.10;2.25;;;14.70;99.90;;;;;;5031733;28;20428;-72
2022/07/10 02:53:42;;;;;;;8.95;2.17;;;14.70;99.90;;;;;;5049194;28;20488;-71
2022/07/10 02:56:07;;;;;;;5.38;1.95;;;14.60;99.90;;;;;;5051679;28;20053;-70
2022/07/10 02:58:33;;;;;;;6.70;2.10;;;14.60;99.90;;;;;;5051782;28;20485;-71
2022/07/10 03:00:59;;;;;;;8.57;2.00;;;14.60;99.90;;;;;;5044114;28;20021;-72
2022/07/10 03:03:25;;;;;;;8.13;2.03;;;14.60;99.90;;;;;;5044757;28;20366;-73
2022/07/10 03:05:51;;;;;;;7.95;1.83;;;14.60;99.90;;;;;;5032247;28;20022;-72
2022/07/10 03:08:16;;;;;;;7.28;2.08;;;14.70;99.90;;;;;;5032312;28;20041;-72
2022/07/10 03:10:42;;;;;;;4.00;1.70;;;14.70;99.90;;;;;;5031766;28;20026;-71
2022/07/10 03:13:07;;;;;;;7.07;1.70;;;14.70;99.90;;;;;;5037706;28;20065;-71
2022/07/10 03:15:33;;;;;;;6.38;1.75;;;14.70;99.90;;;;;;5051651;28;20535;-71
2022/07/10 03:17:59;;;;;;;8.43;2.15;;;14.70;99.90;;;;;;5051271;28;20021;-70
2022/07/10 03:20:25;;;;;;;3.40;1.83;;;14.70;99.90;;;;;;5051207;28;20032;-72
2022/07/10 03:22:50;;;;;;;6.32;1.63;;;14.70;99.90;;;;;;5034697;28;20026;-70
2022/07/10 03:25:16;;;;;;;7.10;1.75;;;14.80;99.90;;;;;;5031486;28;20026;-72
2022/07/10 03:27:42;;;;;;;5.40;1.88;;;14.80;99.90;;;;;;5044712;28;20029;-72
2022/07/10 03:30:08;;;;;;;9.45;1.90;;;14.80;99.90;;;;;;5033730;28;20596;-71
2022/07/10 03:32:34;;;;;;;5.88;1.73;;;14.80;99.90;;;;;;5035009;28;20520;-72
2022/07/10 03:35:00;;;;;;;7.07;1.60;;;14.80;99.90;;;;;;5035101;28;20034;-72
2022/07/10 03:37:25;;;;;;;7.90;2.10;;;14.80;99.90;;;;;;5042202;28;20496;-72
2022/07/10 03:39:51;;;;;;;7.88;1.85;;;14.80;99.90;;;;;;5034571;28;20068;-72
2022/07/10 03:42:17;;;;;;;6.10;1.60;;;14.90;99.90;;;;;;5035069;28;20033;-71
2022/07/10 03:44:42;;;;;;;6.00;1.90;;;14.90;99.90;;;;;;5034717;28;20017;-71
2022/07/10 03:47:08;;;;;;;7.53;2.00;;;14.90;99.90;;;;;;5034155;28;20025;-70
2022/07/10 03:49:34;;;;;;;7.10;1.63;;;14.90;99.90;;;;;;5048291;28;20021;-73
2022/07/10 03:52:03;;;;;;;6.75;1.80;;;15.00;99.90;;;;;;5053991;28;20393;-72
2022/07/10 03:54:29;;;;;;;6.25;1.60;;;15.00;99.90;;;;;;5054931;28;20029;-72
2022/07/10 03:59:40;;;;;;;6.30;1.87;;;15.10;99.90;;;;;;5047455;28;20039;-71
2022/07/10 04:02:06;;;;;;;9.88;1.67;;;15.10;99.90;;;;;;5034401;28;20021;-72
2022/07/10 04:04:32;;;;;;;4.28;1.40;;;15.20;99.90;;;;;;5034356;28;20040;-73
2022/07/10 04:06:58;;;;;;;9.88;2.08;;;15.20;99.90;;;;;;5051864;28;20393;-71
2022/07/10 04:09:23;;;;;;;8.65;1.75;;;15.30;99.90;;;;;;5054402;28;20461;-72
2022/07/10 04:11:49;;;;;;;8.63;1.80;;;15.30;99.90;;;;;;5039631;28;20434;-71
2022/07/10 04:14:14;;;;;;;7.60;1.67;;;15.30;99.90;;;;;;5052872;28;20055;-71
2022/07/10 04:16:40;;;;;;;8.13;1.90;;;15.30;99.90;;;;;;5034046;28;20018;-72
2022/07/10 04:19:05;;;;;;;7.97;1.92;;;15.40;99.90;;;;;;5033926;28;20037;-72
2022/07/10 04:21:31;;;;;;;5.10;1.73;;;15.40;99.90;;;;;;5052840;28;20519;-71
2022/07/10 04:23:57;;;;;;;7.90;1.80;;;15.40;99.90;;;;;;5053529;28;20420;-73
2022/07/10 04:26:23;;;;;;;7.75;1.75;;;15.50;99.90;;;;;;5039367;28;20380;-72
2022/07/10 04:28:49;;;;;;;8.35;2.35;;;15.50;99.90;;;;;;5042367;28;20045;-71
2022/07/10 04:31:14;;;;;;;10.60;2.28;;;15.60;99.90;;;;;;5047199;28;20079;-72
2022/07/10 04:33:40;;;;;;;5.50;1.75;;;15.60;99.90;;;;;;5033441;28;20393;-72
2022/07/10 04:36:05;;;;;;;11.77;2.25;;;15.60;99.90;;;;;;5040709;28;20112;-72
2022/07/10 04:38:31;;;;;;;7.68;2.08;;;15.70;99.90;;;;;;5033467;28;20018;-72
2022/07/10 04:40:57;;;;;;;6.10;1.77;;;15.70;99.90;;;;;;5032691;28;20056;-71
2022/07/10 04:43:23;;;;;;;9.90;2.03;;;15.70;99.90;;;;;;5033445;28;20032;-72
2022/07/10 04:45:48;;;;;;;4.65;1.52;;;15.70;99.90;;;;;;5033991;28;20474;-71
2022/07/10 04:48:14;;;;;;;4.95;1.70;;;15.80;99.90;;;;;;5050458;28;20029;-72
2022/07/10 04:50:39;;;;;;;6.85;1.70;;;15.80;99.90;;;;;;5053133;28;20037;-71
2022/07/10 04:53:05;;;;;;;8.85;1.80;;;15.80;99.90;;;;;;5051557;28;20025;-72
2022/07/10 04:55:30;;;;;;;4.40;1.60;;;15.90;99.90;;;;;;5033149;28;20052;-71
2022/07/10 04:57:56;;;;;;;7.93;1.90;;;15.90;99.90;;;;;;5033123;28;20112;-71
2022/07/10 05:00:22;;;;;;;6.60;1.65;;;15.90;99.90;;;;;;5047034;28;20025;-71
2022/07/10 05:02:47;;;;;;;7.43;1.65;;;16.00;99.90;;;;;;5033103;28;20087;-71
2022/07/10 05:05:13;;;;;;;6.47;1.67;;;16.00;99.90;;;;;;5032748;28;20563;-73
2022/07/10 05:07:38;;;;;;;6.55;1.77;;;16.10;99.90;;;;;;5041922;28;20104;-71
2022/07/10 05:10:05;;;;;;;7.25;1.50;;;16.10;99.90;;;;;;5051652;28;20051;-71
2022/07/10 05:12:30;;;;;;;6.72;1.73;;;16.10;99.90;;;;;;5032484;28;20026;-71
2022/07/10 05:14:57;;;;;;;5.32;1.58;;;16.10;99.90;;;;;;5033093;28;20025;-71
2022/07/10 05:17:23;;;;;;;5.97;1.60;;;16.20;99.90;;;;;;5045590;28;20029;-73
2022/07/10 05:19:48;;;;;;;7.85;1.92;;;16.30;99.90;;;;;;5047817;28;20018;-73
2022/07/10 05:22:14;;;;;;;7.22;1.50;;;16.30;99.90;;;;;;5043691;28;20425;-71
2022/07/10 05:24:39;;;;;;;8.02;1.52;;;16.40;99.90;;;;;;5035271;28;20733;-72
2022/07/10 05:27:06;;;;;;;9.10;1.70;;;16.40;99.90;;;;;;5043870;28;20029;-71
2022/07/10 05:29:31;;;;;;;6.95;1.40;;;16.40;99.90;;;;;;5048892;28;20032;-72
2022/07/10 05:31:57;;;;;;;4.20;1.52;;;16.50;99.90;;;;;;5043092;28;20532;-71
2022/07/10 05:34:22;;;;;;;6.50;1.60;;;16.50;99.90;;;;;;5051972;28;20469;-71
2022/07/10 05:36:48;;;;;;;5.78;1.70;;;16.60;99.90;;;;;;5052088;28;20491;-71
2022/07/10 05:39:13;;;;;;;6.20;1.50;;;16.60;99.90;;;;;;5039615;28;20025;-72
2022/07/10 05:41:39;;;;;;;5.03;1.50;;;16.70;99.90;;;;;;5032478;28;20048;-72
2022/07/10 05:44:04;;;;;;;4.85;1.40;;;16.70;99.90;;;;;;5031918;28;20017;-70
2022/07/10 05:46:30;;;;;;;5.88;1.48;;;16.70;99.90;;;;;;5032537;28;20026;-72
2022/07/10 05:48:56;;;;;;;7.30;1.63;;;16.70;99.90;;;;;;5031857;28;20029;-72
2022/07/10 05:51:21;;;;;;;5.45;1.35;;;16.80;99.90;;;;;;5031952;28;20555;-72
2022/07/10 05:53:47;;;;;;;6.18;1.50;;;16.90;99.90;;;;;;5038521;28;20102;-72
2022/07/10 05:56:13;;;;;;;4.13;1.45;;;16.90;99.90;;;;;;5039214;28;20071;-73
2022/07/10 05:58:38;;;;;;;5.88;1.50;;;16.90;99.90;;;;;;5031560;28;20010;-72
2022/07/10 06:01:04;;;;;;;5.80;1.30;;;17.00;99.90;;;;;;5032269;28;20101;-71
2022/07/10 06:03:29;;;;;;;5.65;1.63;;;17.10;99.90;;;;;;5045487;28;20021;-72
2022/07/10 06:05:55;;;;;;;5.70;1.50;;;17.10;99.90;;;;;;5040196;28;20017;-72
2022/07/10 06:08:21;;;;;;;6.25;1.70;;;17.10;99.90;;;;;;5037232;28;20022;-71
2022/07/10 06:10:46;;;;;;;6.35;1.50;;;17.20;99.90;;;;;;5032093;28;20021;-71
2022/07/10 06:13:12;;;;;;;5.53;1.23;;;17.10;99.90;;;;;;5038036;28;20413;-71
2022/07/10 06:15:38;;;;;;;6.63;1.45;;;17.20;99.90;;;;;;5041477;28;20040;-71
2022/07/10 06:18:04;;;;;;;7.75;1.33;;;17.20;99.90;;;;;;5031254;28;20030;-71
2022/07/10 06:20:31;;;;;;;5.90;1.35;;;17.20;99.90;;;;;;5042581;28;20025;-72
2022/07/10 06:22:56;;;;;;;5.88;1.50;;;17.20;99.90;;;;;;5048077;28;20025;-73
2022/07/10 06:25:22;;;;;;;6.05;1.65;;;17.30;99.90;;;;;;5031964;28;20100;-72
2022/07/10 06:27:47;;;;;;;6.45;1.60;;;17.30;99.90;;;;;;5048367;28;20020;-72
2022/07/10 06:30:13;;;;;;;5.97;1.67;;;17.40;99.90;;;;;;5051560;28;20102;-71
2022/07/10 06:32:39;;;;;;;4.18;1.35;;;17.50;99.90;;;;;;5036732;28;20030;-72
2022/07/10 06:35:07;;;;;;;10.23;1.88;;;17.50;99.90;;;;;;5037484;28;20036;-71
2022/07/10 06:37:32;;;;;;;5.93;1.60;;;17.50;99.90;;;;;;5031221;28;20139;-72
2022/07/10 06:39:58;;;;;;;3.45;1.35;;;17.50;99.90;;;;;;5036460;28;20553;-72
2022/07/10 06:42:24;;;;;;;7.78;1.80;;;17.50;99.90;;;;;;5035868;28;20115;-71
2022/07/10 06:44:49;;;;;;;5.60;1.52;;;17.50;99.90;;;;;;5041940;28;20021;-72
2022/07/10 06:50:03;;;;;;;5.85;1.75;;;17.70;99.90;;;;;;5046544;28;20051;-72
2022/07/10 06:52:32;;;;;;;5.95;1.60;;;17.70;99.90;;;;;;5050919;28;20028;-70
2022/07/10 06:54:58;;;;;;;5.75;1.67;;;17.80;99.90;;;;;;5041928;28;20025;-72
2022/07/10 06:57:24;;;;;;;5.40;1.40;;;17.80;99.90;;;;;;5031301;28;20378;-70
2022/07/10 06:59:49;;;;;;;6.72;1.70;;;17.80;99.90;;;;;;5031782;28;20084;-71
2022/07/10 07:02:15;;;;;;;6.05;1.65;;;17.90;99.90;;;;;;5036605;28;20025;-71
2022/07/10 07:04:41;;;;;;;5.65;1.33;;;17.90;99.90;;;;;;5033339;28;20101;-71
2022/07/10 07:07:06;;;;;;;5.82;1.63;;;18.00;99.90;;;;;;5035378;28;20079;-71
2022/07/10 07:09:32;;;;;;;7.78;1.80;;;18.00;99.90;;;;;;5035334;28;20018;-71
2022/07/10 07:11:57;;;;;;;6.13;1.50;;;18.10;99.90;;;;;;5045588;28;20033;-71
2022/07/10 07:14:23;;;;;;;8.02;1.83;;;18.20;99.90;;;;;;5035500;28;20022;-71
2022/07/10 07:16:58;;;;;;;4.07;1.30;;;18.30;99.90;;;;;;5035483;28;20022;-71
2022/07/10 07:24:52;;;;;;;5.72;1.45;;;18.60;99.90;;;;;;5041110;28;20092;-74
2022/07/10 07:27:18;;;;;;;7.32;1.98;;;18.50;99.90;;;;;;5037544;28;20485;-75
2022/07/10 07:29:43;;;;;;;3.78;1.27;;;18.60;99.90;;;;;;5043826;28;20473;-75
2022/07/10 07:32:09;;;;;;;4.30;1.33;;;18.60;99.90;;;;;;5041897;28;20034;-74
2022/07/10 07:34:35;;;;;;;5.57;1.40;;;18.70;99.90;;;;;;5050169;28;20025;-75
2022/07/10 07:37:00;;;;;;;5.70;1.50;;;18.70;99.90;;;;;;5045125;28;20021;-75
2022/07/10 07:39:26;;;;;;;9.70;1.73;;;18.70;99.90;;;;;;5036619;28;20093;-75
2022/07/10 07:41:51;;;;;;;4.65;1.30;;;18.80;99.90;;;;;;5036966;28;20025;-75
2022/07/10 07:44:17;;;;;;;7.05;1.40;;;18.90;99.90;;;;;;5045170;28;20040;-75
2022/07/10 07:46:44;;;;;;;4.45;1.50;;;19.00;99.90;;;;;;5034040;28;20026;-75
2022/07/10 07:49:09;;;;;;;3.50;1.30;;;19.10;99.90;;;;;;5042994;28;20021;-75
2022/07/10 07:51:35;;;;;;;3.47;2.00;;;19.10;99.90;;;;;;5037483;28;20025;-75
2022/07/10 07:54:00;;;;;;;5.88;1.95;;;19.10;99.90;;;;;;5036884;28;20033;-75
2022/07/10 07:56:26;;;;;;;4.05;1.25;;;19.00;99.90;;;;;;5051710;28;20028;-75
2022/07/10 07:58:52;;;;;;;5.93;1.50;;;19.10;99.90;;;;;;5046056;28;20025;-75
2022/07/10 08:01:19;;;;;;;4.40;1.17;;;19.20;99.90;;;;;;5046638;28;20114;-75
2022/07/10 08:03:45;;;;;;;4.65;1.25;;;19.20;99.90;;;;;;5039234;28;20028;-74
2022/07/10 08:06:10;;;;;;;5.43;1.30;;;19.10;99.90;;;;;;5041402;28;20017;-75
2022/07/10 08:08:36;;;;;;;4.75;1.40;;;19.10;99.90;;;;;;5048206;28;20075;-75
2022/07/10 08:11:02;;;;;;;4.95;1.50;;;19.00;99.90;;;;;;5035808;28;20479;-75
2022/07/10 08:13:28;;;;;;;7.07;1.45;;;19.00;99.90;;;;;;5044235;28;20473;-75
2022/07/10 08:15:54;;;;;;;5.10;1.38;;;19.00;99.90;;;;;;5046347;28;20043;-75
2022/07/10 08:18:20;;;;;;;3.10;1.35;;;19.20;99.90;;;;;;5031326;28;20021;-76
2022/07/10 08:20:45;;;;;;;3.88;1.20;;;19.20;99.90;;;;;;5032784;28;20018;-75
2022/07/10 08:23:11;;;;;;;3.20;1.20;;;19.30;99.90;;;;;;5035685;28;20154;-76
2022/07/10 08:25:36;;;;;;;3.92;1.15;;;19.40;99.90;;;;;;5035569;28;20025;-74
2022/07/10 08:28:05;;;;;;;4.38;1.30;;;19.50;99.90;;;;;;5032673;28;20081;-76
2022/07/10 08:30:32;;;;;;;5.43;1.25;;;19.50;99.90;;;;;;5034077;28;20045;-74
2022/07/10 08:32:58;;;;;;;3.63;1.17;;;19.50;99.90;;;;;;5035074;28;20056;-74
2022/07/10 08:35:24;;;;;;;4.35;1.27;;;19.70;99.90;;;;;;5033799;28;20390;-75
2022/07/10 08:37:50;;;;;;;7.82;1.40;;;19.70;99.90;;;;;;5036624;28;20056;-74
2022/07/10 08:40:16;;;;;;;4.25;1.48;;;19.80;99.90;;;;;;5033606;28;20025;-74
2022/07/10 08:42:44;;;;;;;3.88;1.30;;;19.80;99.90;;;;;;5033235;28;20030;-74
2022/07/10 08:45:11;;;;;;;3.35;1.30;;;19.90;99.90;;;;;;5032960;28;20040;-75
2022/07/10 08:47:41;;;;;;;5.28;1.40;;;20.00;99.90;;;;;;5033175;28;20079;-74
2022/07/10 08:50:28;;;;;;;6.60;1.35;;;20.10;99.90;;;;;;5045092;28;20022;-75
2022/07/10 08:53:12;;;;;;;5.35;1.20;;;20.10;99.90;;;;;;5033104;28;20060;-74
2022/07/10 08:55:39;;;;;;;4.93;1.10;;;20.10;99.90;;;;;;5032985;28;20121;-74
2022/07/10 08:58:05;;;;;;;7.88;1.60;;;20.10;99.90;;;;;;5033060;28;20030;-73
2022/07/10 09:00:31;;;;;;;6.35;1.70;;;20.10;99.90;;;;;;5032421;28;20071;-73
2022/07/10 09:02:56;;;;;;;4.05;1.35;;;20.10;99.90;;;;;;5032664;28;20524;-73
2022/07/10 09:05:26;;;;;;;5.07;1.60;;;20.10;99.90;;;;;;5044006;28;20444;-74
2022/07/10 09:07:53;;;;;;;6.55;1.80;;;20.00;99.90;;;;;;5032682;28;20021;-75
2022/07/10 09:10:22;;;;;;;5.20;1.50;;;20.00;99.90;;;;;;5035529;28;20060;-75
2022/07/10 09:12:53;;;;;;;5.15;1.48;;;20.10;99.90;;;;;;5052367;28;20040;-75
2022/07/10 09:15:22;;;;;;;3.20;1.13;;;20.10;99.90;;;;;;5037943;28;20092;-74
2022/07/10 09:17:59;;;;;;;4.93;1.20;;;20.10;99.90;;;;;;5041410;28;20029;-74
2022/07/10 09:20:34;;;;;;;6.90;1.60;;;20.10;99.90;;;;;;5045917;28;20036;-75
2022/07/10 09:23:20;;;;;;;7.70;1.60;;;20.20;99.90;;;;;;5040739;28;20017;-74
2022/07/10 09:25:54;;;;;;;5.80;1.42;;;20.20;99.90;;;;;;5043436;28;20051;-77
2022/07/10 09:28:21;;;;;;;3.20;1.27;;;20.30;99.90;;;;;;5041927;28;20027;-74
2022/07/10 09:30:47;;;;;;;5.50;1.25;;;20.30;99.90;;;;;;5047061;28;20260;-75
2022/07/10 09:33:24;;;;;;;5.75;1.40;;;20.30;99.90;;;;;;5034433;28;20514;-73
2022/07/10 09:36:10;;;;;;;6.03;1.35;;;20.40;99.90;;;;;;5041722;28;20420;-77
2022/07/10 09:38:54;;;;;;;5.88;1.67;;;20.30;99.90;;;;;;5038081;28;20033;-79
2022/07/10 09:41:28;;;;;;;5.25;1.40;;;20.40;99.90;;;;;;5035189;28;20041;-74
2022/07/10 09:43:59;;;;;;;3.47;1.10;;;20.40;99.90;;;;;;5031051;28;20037;-75
2022/07/10 09:46:36;;;;;;;5.43;1.13;;;20.40;99.90;;;;;;5031706;28;20364;-75
2022/07/10 09:49:13;;;;;;;3.10;1.30;;;20.40;99.90;;;;;;5037074;28;20029;-75
2022/07/10 09:51:39;;;;;;;4.13;1.20;;;20.50;99.90;;;;;;5040310;28;20088;-75
2022/07/10 09:54:07;;;;;;;4.40;1.30;;;20.60;99.90;;;;;;5039927;28;20028;-72
2022/07/10 09:56:44;;;;;;;4.80;1.20;;;20.60;99.90;;;;;;5033167;28;20125;-72
2022/07/10 09:59:14;;;;;;;5.85;1.23;;;20.70;99.90;;;;;;5044135;28;20071;-73
2022/07/10 10:01:45;;;;;;;3.55;1.10;;;20.80;99.90;;;;;;5046212;28;20124;-72
2022/07/10 10:04:12;;;;;;;5.78;1.30;;;20.90;99.90;;;;;;5046501;28;20021;-72
2022/07/10 10:06:40;;;;;;;6.63;1.60;;;20.80;99.90;;;;;;5047749;28;20406;-71
2022/07/10 10:09:24;;;;;;;4.25;1.40;;;21.00;99.90;;;;;;5031075;28;20040;-72
2022/07/10 10:11:56;;;;;;;4.28;1.20;;;21.10;99.90;;;;;;5030397;28;20039;-72
2022/07/10 10:14:24;;;;;;;3.67;1.27;;;21.30;99.90;;;;;;5033982;28;20017;-72
2022/07/10 10:16:51;;;;;;;3.95;1.20;;;21.50;99.90;;;;;;5035242;28;20018;-73
2022/07/10 10:22:17;;;;;;;4.63;1.38;;;21.80;99.90;;;;;;5045287;28;20037;-72
2022/07/10 10:24:45;;;;;;;4.30;1.30;;;22.00;99.90;;;;;;5047875;28;20083;-73
2022/07/10 10:27:11;;;;;;;5.03;1.45;;;22.10;99.60;;;;;;5048069;28;20044;-73
2022/07/10 10:29:38;;;;;;;7.38;1.20;;;22.10;99.30;;;;;;5048017;28;20016;-73
2022/07/10 10:32:05;;;;;;;2.60;1.27;;;22.20;99.50;;;;;;5048119;28;20048;-72
2022/07/10 10:34:55;;;;;;;4.30;1.20;;;22.30;98.80;;;;;;5048061;28;20381;-73
2022/07/10 10:37:44;;;;;;;3.92;1.20;;;22.30;97.70;;;;;;5048010;28;20032;-73
2022/07/10 10:40:11;;;;;;;5.20;1.40;;;22.30;97.00;;;;;;5047338;28;20518;-73
2022/07/10 10:42:44;;;;;;;5.13;1.20;;;22.20;96.80;;;;;;5048096;28;20388;-72
2022/07/10 10:45:22;;;;;;;5.35;1.35;;;22.30;96.50;;;;;;5048503;28;20060;-71
2022/07/10 10:48:01;;;;;;;4.13;1.20;;;22.30;96.20;;;;;;5047832;28;20021;-70
2022/07/10 10:50:45;;;;;;;6.55;1.10;;;22.30;96.00;;;;;;5035536;28;20029;-71
2022/07/10 10:53:22;;;;;;;4.43;1.35;;;22.40;95.40;;;;;;5047675;28;20049;-73
2022/07/10 10:56:00;;;;;;;5.22;1.38;;;22.40;94.90;;;;;;5047791;28;20021;-72
2022/07/10 10:58:35;;;;;;;4.25;1.20;;;22.30;94.70;;;;;;5043844;28;20483;-72
2022/07/10 11:01:05;;;;;;;3.03;1.20;;;22.20;94.60;;;;;;5051025;28;20458;-72
2022/07/10 11:03:31;;;;;;;3.65;1.10;;;22.30;94.40;;;;;;5047445;28;20025;-73
2022/07/10 11:05:57;;;;;;;6.22;1.25;;;22.30;94.20;;;;;;5039734;28;20025;-72
2022/07/10 11:08:37;;;;;;;5.28;1.48;;;22.30;93.80;;;;;;5050249;28;20025;-71
2022/07/10 11:11:31;;;;;;;4.38;1.33;;;22.30;93.30;;;;;;5050427;28;20017;-72
2022/07/10 11:14:00;;;;;;;1.92;1.02;;;22.40;93.80;;;;;;5049952;28;20488;-73
2022/07/10 11:16:25;;;;;;;7.22;1.27;;;22.60;92.80;;;;;;5050433;28;20579;-73
2022/07/10 11:18:54;;;;;;;6.15;1.33;;;22.70;92.10;;;;;;5050105;28;20024;-73
2022/07/10 11:21:25;;;;;;;5.35;1.30;;;22.90;91.30;;;;;;5039396;28;20018;-73
2022/07/10 11:24:10;;;;;;;3.92;1.00;;;22.90;89.60;;;;;;5046570;28;20495;-73
2022/07/10 11:26:58;;;;;;;2.45;0.70;;;22.90;87.80;;;;;;5037495;28;20065;-72
2022/07/10 11:29:23;;;;;;;3.15;1.10;;;22.80;87.30;;;;;;5048081;28;20119;-72
2022/07/10 11:31:53;;;;;;;3.15;1.25;;;22.90;87.10;;;;;;5040422;28;20060;-72
2022/07/10 11:34:21;;;;;;;4.50;1.35;;;22.90;85.90;;;;;;5052590;28;20140;-71
2022/07/10 11:36:47;;;;;;;2.22;1.00;;;22.90;84.70;;;;;;5053132;28;20541;-73
2022/07/10 11:39:14;;;;;;;2.92;1.00;;;23.00;83.60;;;;;;5052459;28;20025;-70
2022/07/10 11:41:47;;;;;;;1.48;0.90;;;23.10;82.40;;;;;;5052821;28;20427;-73
2022/07/10 11:44:18;;;;;;;5.15;1.10;;;23.10;81.80;;;;;;5051051;28;20025;-73
2022/07/10 11:46:45;;;;;;;6.50;1.20;;;23.20;79.90;;;;;;5050889;28;20374;-71
2022/07/10 11:49:13;;;;;;;3.17;0.90;;;23.30;78.90;;;;;;5052008;28;20025;-71
2022/07/10 11:51:39;;;;;;;17.58;1.60;;;23.30;78.20;;;;;;5053904;28;20487;-72
2022/07/10 11:54:17;;;;;;;3.88;1.05;;;23.30;76.30;;;;;;5056477;28;20056;-73
2022/07/10 11:56:51;;;;;;;3.83;0.98;;;23.50;75.20;;;;;;5055524;28;20017;-72
2022/07/10 11:59:19;;;;;;;2.75;0.90;;;23.60;75.00;;;;;;5054720;28;20033;-73
2022/07/10 12:01:50;;;;;;;4.50;0.90;;;23.70;74.70;;;;;;5056872;28;20021;-72
2022/07/10 12:04:18;;;;;;;3.15;0.93;;;23.90;73.80;;;;;;5056879;28;20025;-72
2022/07/10 12:06:46;;;;;;;4.45;1.30;;;24.00;72.70;;;;;;5056325;28;20029;-72
2022/07/10 12:09:14;;;;;;;2.97;0.98;;;24.20;72.80;;;;;;5055891;28;20023;-72
2022/07/10 12:11:41;;;;;;;2.17;0.77;;;24.30;71.40;;;;;;5056080;28;20025;-75
2022/07/10 12:14:18;;;;;;;1.92;1.00;;;24.30;69.60;;;;;;5055748;28;20033;-72
2022/07/10 12:16:51;;;;;;;1.73;0.85;;;24.20;70.20;;;;;;5054507;28;20048;-72
2022/07/10 12:19:19;;;;;;;2.67;1.25;;;24.30;70.70;;;;;;5040974;28;20036;-72
2022/07/10 12:21:46;;;;;;;3.15;0.90;;;24.20;69.10;;;;;;5053799;28;20032;-72
2022/07/10 12:24:15;;;;;;;3.90;0.90;;;24.20;68.90;;;;;;5055256;28;20044;-73
2022/07/10 12:26:42;;;;;;;3.30;1.05;;;24.20;69.00;;;;;;5055260;28;20055;-72
2022/07/10 12:29:24;;;;;;;3.47;0.80;;;24.20;69.60;;;;;;5053786;28;20020;-72
2022/07/10 12:31:52;;;;;;;2.75;1.05;;;24.20;69.50;;;;;;5042318;28;20032;-72
2022/07/10 12:34:18;;;;;;;2.67;1.00;;;24.30;69.50;;;;;;5053869;28;20616;-71
2022/07/10 12:36:52;;;;;;;2.90;0.98;;;24.30;69.60;;;;;;5047249;28;20039;-80
2022/07/10 12:39:21;;;;;;;5.18;0.85;;;24.30;69.90;;;;;;5054693;28;20033;-74
2022/07/10 12:41:54;;;;;;;4.47;1.00;;;24.40;70.60;;;;;;5035798;28;20036;-76
2022/07/10 12:44:38;;;;;;;3.75;1.10;;;24.50;70.90;;;;;;5050261;28;20017;-75
2022/07/10 12:47:15;;;;;;;3.92;1.48;;;24.60;68.70;;;;;;5040858;28;20385;-75
2022/07/10 12:50:04;;;;;;;3.95;1.23;;;24.70;70.30;;;;;;5045746;28;20104;-75
2022/07/10 12:52:32;;;;;;;2.75;1.10;;;24.70;71.10;;;;;;5034988;28;20052;-75
2022/07/10 12:55:10;;;;;;;2.92;1.08;;;24.90;71.10;;;;;;5042327;28;20019;-75
2022/07/10 12:57:55;;;;;;;7.63;1.40;;;24.90;70.60;;;;;;5033714;28;20036;-75
2022/07/10 13:00:24;;;;;;;;;;;24.80;71.80;;;;;;5033319;28;20025;-76
2022/07/10 13:03:04;;;;;;;3.70;1.30;;;24.80;72.10;;;;;;5031724;28;20415;-75
2022/07/10 13:05:37;;;;;;;3.70;1.08;;;24.90;72.90;;;;;;5032098;28;20026;-75